Time;durP1;ratioP1;P1;durP2;ratioP2;P2;SDS_P1;SDS_P2;PMS_P1;PMS_P2;Temp;Humidity;BMP_temperature;BMP_pressure;BME280_temperature;BME280_humidity;BME280_pressure;Samples;Min_cycle;Max_cycle;Signal;HPM_P1;HPM_P2
2023/09/27 00:01:02;;;;;;;;;;;;;;;;;;4980843;28;89168;-67
2023/09/27 00:03:27;;;;;;;;;;;;;;;;;;4978091;28;89968;-66
2023/09/27 00:05:53;;;;;;;;;;;;;;;;;;4978666;28;89978;-66
2023/09/27 00:08:18;;;;;;;;;;;;;;;;;;4982433;28;90128;-66
2023/09/27 00:10:43;;;;;;;;;;;;;;;;;;4981261;28;93071;-65
2023/09/27 00:13:09;;;;;;;;;;;;;;;;;;4978667;28;90370;-66
2023/09/27 00:15:34;;;;;;;;;;;;;;;;;;4979343;28;90768;-66
2023/09/27 00:17:59;;;;;;;;;;;;;;;;;;4978805;28;89789;-66
2023/09/27 00:20:25;;;;;;;;;;;;;;;;;;4977867;28;89325;-66
2023/09/27 00:22:51;;;;;;;;;;;;;;;;;;4973060;28;89505;-66
2023/09/27 00:25:16;;;;;;;;;;;;;;;;;;4982707;28;89342;-65
2023/09/27 00:27:41;;;;;;;;;;;;;;;;;;4979838;28;89414;-65
2023/09/27 00:30:08;;;;;;;;;;;;;;;;;;4975008;28;89863;-66
2023/09/27 00:32:33;;;;;;;;;;;;;;;;;;4978302;28;89090;-66
2023/09/27 00:34:59;;;;;;;;;;;;;;;;;;4984488;28;90394;-66
2023/09/27 00:37:25;;;;;;;;;;;;;;;;;;4980169;28;90449;-65
2023/09/27 00:39:50;;;;;;;;;;;;;;;;;;4978153;28;89404;-66
2023/09/27 00:42:15;;;;;;;;;;;;;;;;;;4974543;28;89592;-65
2023/09/27 00:44:40;;;;;;;;;;;;;;;;;;4977216;28;89259;-66
2023/09/27 00:47:06;;;;;;;;;;;;;;;;;;4981007;28;89468;-65
2023/09/27 00:49:32;;;;;;;;;;;;;;;;;;4982112;28;90103;-66
2023/09/27 00:51:57;;;;;;;;;;;;;;;;;;4973869;28;90506;-66
2023/09/27 00:54:23;;;;;;;;;;;;;;;;;;4976342;28;89290;-66
2023/09/27 00:56:51;;;;;;;;;;;;;;;;;;4979544;28;89771;-65
2023/09/27 00:59:17;;;;;;;;;;;;;;;;;;4980343;28;89189;-66
2023/09/27 01:01:44;;;;;;;;;;;;;;;;;;4977468;28;90702;-67
2023/09/27 01:04:10;;;;;;;;;;;;;;;;;;4976440;28;89464;-67
2023/09/27 01:06:36;;;;;;;;;;;;;;;;;;4974555;28;89489;-66
2023/09/27 01:09:01;;;;;;;;;;;;;;;;;;4980073;28;90552;-66
2023/09/27 01:11:29;;;;;;;;;;;;;;;;;;4980108;28;90871;-66
2023/09/27 01:13:54;;;;;;;;;;;;;;;;;;4971465;28;90065;-66
2023/09/27 01:16:19;;;;;;;;;;;;;;;;;;4981507;28;89477;-65
2023/09/27 01:18:44;;;;;;;;;;;;;;;;;;4984712;28;90110;-67
2023/09/27 01:21:09;;;;;;;;;;;;;;;;;;4977114;28;89790;-66
2023/09/27 01:23:38;;;;;;;;;;;;;;;;;;4971641;28;89238;-66
2023/09/27 01:26:05;;;;;;;;;;;;;;;;;;4974311;28;89678;-66
2023/09/27 01:28:31;;;;;;;;;;;;;;;;;;4973397;28;92020;-66
2023/09/27 01:30:56;;;;;;;;;;;;;;;;;;5005542;28;92328;-67
2023/09/27 01:33:22;;;;;;;;;;;;;;;;;;4974742;28;90079;-67
2023/09/27 01:35:48;;;;;;;;;;;;;;;;;;4975700;28;90179;-66
2023/09/27 01:38:13;;;;;;;;;;;;;;;;;;4976276;28;90137;-66
2023/09/27 01:40:40;;;;;;;;;;;;;;;;;;4977170;28;89379;-66
2023/09/27 01:43:06;;;;;;;;;;;;;;;;;;4976682;28;89218;-66
2023/09/27 01:45:32;;;;;;;;;;;;;;;;;;4977090;28;89065;-66
2023/09/27 01:47:57;;;;;;;;;;;;;;;;;;4970022;28;89782;-65
2023/09/27 01:50:24;;;;;;;;;;;;;;;;;;4976225;28;89385;-66
2023/09/27 01:52:50;;;;;;;;;;;;;;;;;;4979752;28;89113;-66
2023/09/27 01:55:15;;;;;;;;;;;;;;;;;;4972501;28;90627;-66
2023/09/27 01:57:41;;;;;;;;;;;;;;;;;;4976803;28;90070;-66
2023/09/27 02:00:11;;;;;;;;;;;;;;;;;;4975172;28;89876;-66
2023/09/27 02:02:39;;;;;;;;;;;;;;;;;;4980815;28;90674;-65
2023/09/27 02:05:05;;;;;;;;;;;;;;;;;;4972555;28;89127;-65
2023/09/27 02:07:30;;;;;;;;;;;;;;;;;;4980704;28;89742;-65
2023/09/27 02:09:55;;;;;;;;;;;;;;;;;;4980075;28;90318;-66
2023/09/27 02:12:21;;;;;;;;;;;;;;;;;;4974199;28;89862;-66
2023/09/27 02:14:46;;;;;;;;;;;;;;;;;;4974345;28;89592;-66
2023/09/27 02:17:11;;;;;;;;;;;;;;;;;;4980034;28;89775;-66
2023/09/27 02:19:36;;;;;;;;;;;;;;;;;;4975470;28;89222;-66
2023/09/27 02:22:02;;;;;;;;;;;;;;;;;;4979045;28;89464;-65
2023/09/27 02:24:27;;;;;;;;;;;;;;;;;;4977071;28;89761;-65
2023/09/27 02:26:53;;;;;;;;;;;;;;;;;;4979688;28;89513;-66
2023/09/27 02:29:19;;;;;;;;;;;;;;;;;;4973681;28;89887;-66
2023/09/27 02:31:44;;;;;;;;;;;;;;;;;;4975224;28;89520;-66
2023/09/27 02:34:09;;;;;;;;;;;;;;;;;;4977448;28;89769;-65
2023/09/27 02:36:35;;;;;;;;;;;;;;;;;;4974580;28;89856;-65
2023/09/27 02:39:00;;;;;;;;;;;;;;;;;;5010079;28;90205;-66
2023/09/27 02:41:25;;;;;;;;;;;;;;;;;;4976310;28;89392;-65
2023/09/27 02:43:50;;;;;;;;;;;;;;;;;;4981296;28;91046;-66
2023/09/27 02:46:15;;;;;;;;;;;;;;;;;;4981184;28;90415;-66
2023/09/27 02:48:41;;;;;;;;;;;;;;;;;;4978747;28;89657;-65
2023/09/27 02:51:06;;;;;;;;;;;;;;;;;;4978845;28;89759;-66
2023/09/27 02:53:31;;;;;;;;;;;;;;;;;;4975137;28;89495;-66
2023/09/27 02:55:57;;;;;;;;;;;;;;;;;;4978848;28;89171;-66
2023/09/27 02:58:22;;;;;;;;;;;;;;;;;;4978218;28;89108;-66
2023/09/27 03:00:48;;;;;;;;;;;;;;;;;;4977401;28;89441;-65
2023/09/27 03:03:13;;;;;;;;;;;;;;;;;;4981969;28;89743;-66
2023/09/27 03:05:39;;;;;;;;;;;;;;;;;;4983073;28;89538;-66
2023/09/27 03:08:04;;;;;;;;;;;;;;;;;;4978422;28;89970;-66
2023/09/27 03:10:29;;;;;;;;;;;;;;;;;;4980846;28;89524;-66
2023/09/27 03:12:58;;;;;;;;;;;;;;;;;;4981355;28;89524;-67
2023/09/27 03:15:24;;;;;;;;;;;;;;;;;;4976796;28;90344;-67
2023/09/27 03:17:49;;;;;;;;;;;;;;;;;;4975806;28;89786;-66
2023/09/27 03:20:18;;;;;;;;;;;;;;;;;;4975860;28;90760;-66
2023/09/27 03:22:44;;;;;;;;;;;;;;;;;;4975460;28;90265;-67
2023/09/27 03:25:10;;;;;;;;;;;;;;;;;;4980301;28;89243;-67
2023/09/27 03:27:38;;;;;;;;;;;;;;;;;;4978513;28;89821;-65
2023/09/27 03:30:08;;;;;;;;;;;;;;;;;;4978233;28;89758;-65
2023/09/27 03:32:33;;;;;;;;;;;;;;;;;;4980036;28;89812;-66
2023/09/27 03:34:59;;;;;;;;;;;;;;;;;;4976432;28;90228;-66
2023/09/27 03:37:24;;;;;;;;;;;;;;;;;;4975579;28;88991;-66
2023/09/27 03:39:52;;;;;;;;;;;;;;;;;;4976714;28;89388;-66
2023/09/27 03:42:17;;;;;;;;;;;;;;;;;;4975129;28;90504;-66
2023/09/27 03:44:43;;;;;;;;;;;;;;;;;;4974202;28;90097;-67
2023/09/27 03:47:08;;;;;;;;;;;;;;;;;;4975008;28;90562;-67
2023/09/27 03:49:34;;;;;;;;;;;;;;;;;;4978966;28;89347;-66
2023/09/27 03:51:59;;;;;;;;;;;;;;;;;;4977845;28;89403;-65
2023/09/27 03:54:24;;;;;;;;;;;;;;;;;;4975134;28;90352;-65
2023/09/27 03:56:50;;;;;;;;;;;;;;;;;;4977371;28;89088;-66
2023/09/27 03:59:15;;;;;;;;;;;;;;;;;;4980944;28;89471;-66
2023/09/27 04:01:40;;;;;;;;;;;;;;;;;;4975971;28;90031;-66
2023/09/27 04:04:05;;;;;;;;;;;;;;;;;;4977690;28;89491;-66
2023/09/27 04:06:31;;;;;;;;;;;;;;;;;;4974583;28;90460;-66
2023/09/27 04:08:56;;;;;;;;;;;;;;;;;;4972099;28;89896;-66
2023/09/27 04:11:21;;;;;;;;;;;;;;;;;;4984282;28;90004;-66
2023/09/27 04:13:48;;;;;;;;;;;;;;;;;;4973749;28;89704;-66
2023/09/27 04:16:13;;;;;;;;;;;;;;;;;;4976797;28;89446;-66
2023/09/27 04:18:38;;;;;;;;;;;;;;;;;;4982063;28;89676;-66
2023/09/27 04:21:05;;;;;;;;;;;;;;;;;;4972269;28;90066;-66
2023/09/27 04:23:31;;;;;;;;;;;;;;;;;;4977993;28;89745;-66
2023/09/27 04:25:56;;;;;;;;;;;;;;;;;;4977316;28;89739;-66
2023/09/27 04:28:21;;;;;;;;;;;;;;;;;;4977143;28;89354;-65
2023/09/27 04:30:46;;;;;;;;;;;;;;;;;;4979456;28;89210;-65
2023/09/27 04:33:12;;;;;;;;;;;;;;;;;;4973047;28;90853;-66
2023/09/27 04:35:37;;;;;;;;;;;;;;;;;;4972767;28;89756;-66
2023/09/27 04:38:04;;;;;;;;;;;;;;;;;;4977859;28;90369;-65
2023/09/27 04:40:29;;;;;;;;;;;;;;;;;;4973424;28;90152;-66
2023/09/27 04:42:54;;;;;;;;;;;;;;;;;;4976462;28;89726;-66
2023/09/27 04:45:20;;;;;;;;;;;;;;;;;;4978580;28;89640;-66
2023/09/27 04:47:45;;;;;;;;;;;;;;;;;;4976494;28;90036;-65
2023/09/27 04:50:13;;;;;;;;;;;;;;;;;;4976915;28;89588;-66
2023/09/27 04:52:39;;;;;;;;;;;;;;;;;;4978419;28;90812;-65
2023/09/27 04:55:07;;;;;;;;;;;;;;;;;;4977078;28;89459;-65
2023/09/27 04:57:32;;;;;;;;;;;;;;;;;;4981709;28;90166;-65
2023/09/27 04:59:58;;;;;;;;;;;;;;;;;;4982099;28;89591;-66
2023/09/27 05:02:24;;;;;;;;;;;;;;;;;;4978612;28;89043;-66
2023/09/27 05:04:49;;;;;;;;;;;;;;;;;;4978862;28;92353;-66
2023/09/27 05:07:20;;;;;;;;;;;;;;;;;;4973865;28;90462;-66
2023/09/27 05:09:46;;;;;;;;;;;;;;;;;;4977125;28;89533;-66
2023/09/27 05:12:12;;;;;;;;;;;;;;;;;;4977152;28;89523;-66
2023/09/27 05:14:38;;;;;;;;;;;;;;;;;;4973074;28;90866;-66
2023/09/27 05:17:03;;;;;;;;;;;;;;;;;;4975096;28;90444;-66
2023/09/27 05:19:29;;;;;;;;;;;;;;;;;;4979235;28;89763;-66
2023/09/27 05:21:54;;;;;;;;;;;;;;;;;;4976526;28;90455;-66
2023/09/27 05:24:20;;;;;;;;;;;;;;;;;;4972814;28;90606;-65
2023/09/27 05:26:45;;;;;;;;;;;;;;;;;;4980918;28;89498;-67
2023/09/27 05:29:16;;;;;;;;;;;;;;;;;;4976626;28;89533;-66
2023/09/27 05:31:42;;;;;;;;;;;;;;;;;;4973695;28;90105;-66
2023/09/27 05:34:07;;;;;;;;;;;;;;;;;;4969881;28;89428;-65
2023/09/27 05:36:33;;;;;;;;;;;;;;;;;;4978707;28;89542;-65
2023/09/27 05:39:02;;;;;;;;;;;;;;;;;;4970961;28;89231;-66
2023/09/27 05:41:28;;;;;;;;;;;;;;;;;;4974061;28;89579;-66
2023/09/27 05:43:53;;;;;;;;;;;;;;;;;;4976497;28;89895;-67
2023/09/27 05:46:18;;;;;;;;;;;;;;;;;;4971740;28;89427;-66
2023/09/27 05:48:44;;;;;;;;;;;;;;;;;;4976445;28;89377;-68
2023/09/27 05:51:10;;;;;;;;;;;;;;;;;;4976280;28;90329;-68
2023/09/27 05:53:35;;;;;;;;;;;;;;;;;;4974322;28;90088;-68
2023/09/27 05:56:03;;;;;;;;;;;;;;;;;;4977924;28;91285;-67
2023/09/27 05:58:33;;;;;;;;;;;;;;;;;;4982500;28;91223;-67
2023/09/27 06:00:59;;;;;;;;;;;;;;;;;;4978294;28;89193;-66
2023/09/27 06:03:25;;;;;;;;;;;;;;;;;;4979372;28;90000;-66
2023/09/27 06:05:51;;;;;;;;;;;;;;;;;;4979277;28;89695;-66
2023/09/27 06:08:16;;;;;;;;;;;;;;;;;;4976267;28;89226;-67
2023/09/27 06:10:41;;;;;;;;;;;;;;;;;;4981661;28;89083;-66
2023/09/27 06:13:07;;;;;;;;;;;;;;;;;;4978423;28;89365;-66
2023/09/27 06:15:33;;;;;;;;;;;;;;;;;;4974694;28;89972;-65
2023/09/27 06:17:58;;;;;;;;;;;;;;;;;;4981063;28;90555;-66
2023/09/27 06:20:29;;;;;;;;;;;;;;;;;;4985658;28;89678;-66
2023/09/27 06:22:57;;;;;;;;;;;;;;;;;;4975229;28;92677;-67
2023/09/27 06:25:29;;;;;;;;;;;;;;;;;;4979395;28;90891;-67
2023/09/27 06:27:54;;;;;;;;;;;;;;;;;;4977499;28;90025;-67
2023/09/27 06:30:20;;;;;;;;;;;;;;;;;;4980491;28;90574;-69
2023/09/27 06:32:46;;;;;;;;;;;;;;;;;;4978443;28;90368;-66
2023/09/27 06:35:14;;;;;;;;;;;;;;;;;;4974938;28;90470;-66
2023/09/27 06:37:40;;;;;;;;;;;;;;;;;;4977742;28;90817;-67
2023/09/27 06:40:09;;;;;;;;;;;;;;;;;;4982259;28;90034;-66
2023/09/27 06:42:35;;;;;;;;;;;;;;;;;;4974049;28;90725;-66
2023/09/27 06:45:01;;;;;;;;;;;;;;;;;;4976478;28;90234;-66
2023/09/27 06:47:27;;;;;;;;;;;;;;;;;;4977300;28;89100;-67
2023/09/27 06:49:53;;;;;;;;;;;;;;;;;;4981144;28;90745;-66
2023/09/27 06:52:20;;;;;;;;;;;;;;;;;;4977076;28;89155;-67
2023/09/27 06:54:45;;;;;;;;;;;;;;;;;;4974440;28;89803;-67
2023/09/27 06:57:11;;;;;;;;;;;;;;;;;;5008205;28;90793;-66
2023/09/27 06:59:36;;;;;;;;;;;;;;;;;;4977870;28;89919;-65
2023/09/27 07:02:01;;;;;;;;;;;;;;;;;;4980402;28;90463;-65
2023/09/27 07:04:27;;;;;;;;;;;;;;;;;;4983073;28;91285;-65
2023/09/27 07:06:52;;;;;;;;;;;;;;;;;;4982854;28;89689;-66
2023/09/27 07:09:20;;;;;;;;;;;;;;;;;;4979600;28;90796;-65
2023/09/27 07:11:45;;;;;;;;;;;;;;;;;;4978447;28;90161;-67
2023/09/27 07:14:12;;;;;;;;;;;;;;;;;;4980605;28;89442;-66
2023/09/27 07:16:37;;;;;;;;;;;;;;;;;;4978486;28;90611;-66
2023/09/27 07:19:05;;;;;;;;;;;;;;;;;;4980036;28;90100;-66
2023/09/27 07:21:30;;;;;;;;;;;;;;;;;;4980977;28;89081;-66
2023/09/27 07:23:56;;;;;;;;;;;;;;;;;;4979050;28;91779;-66
2023/09/27 07:26:21;;;;;;;;;;;;;;;;;;4980884;28;89104;-66
2023/09/27 07:28:46;;;;;;;;;;;;;;;;;;4976547;28;89573;-65
2023/09/27 07:31:14;;;;;;;;;;;;;;;;;;4982434;28;89186;-66
2023/09/27 07:33:39;;;;;;;;;;;;;;;;;;4975134;28;90767;-67
2023/09/27 07:36:08;;;;;;;;;;;;;;;;;;4975878;28;89684;-66
2023/09/27 07:38:33;;;;;;;;;;;;;;;;;;4974364;28;90308;-66
2023/09/27 07:40:59;;;;;;;;;;;;;;;;;;4974771;28;89104;-66
2023/09/27 07:43:24;;;;;;;;;;;;;;;;;;4976720;28;91268;-66
2023/09/27 07:45:49;;;;;;;;;;;;;;;;;;4980151;28;89751;-66
2023/09/27 07:48:14;;;;;;;;;;;;;;;;;;4974319;28;90005;-65
2023/09/27 07:50:40;;;;;;;;;;;;;;;;;;4980658;28;89756;-66
2023/09/27 07:53:08;;;;;;;;;;;;;;;;;;4978268;28;90059;-66
2023/09/27 07:55:43;;;;;;;;;;;;;;;;;;4974173;28;90579;-66
2023/09/27 07:58:08;;;;;;;;;;;;;;;;;;4980003;28;91862;-65
2023/09/27 08:00:35;;;;;;;;;;;;;;;;;;5006268;28;90654;-66
2023/09/27 08:03:00;;;;;;;;;;;;;;;;;;4977843;28;89604;-66
2023/09/27 08:05:26;;;;;;;;;;;;;;;;;;4976105;28;89760;-65
2023/09/27 08:07:51;;;;;;;;;;;;;;;;;;4978243;28;89160;-65
2023/09/27 08:10:17;;;;;;;;;;;;;;;;;;4974516;28;90488;-66
2023/09/27 08:12:43;;;;;;;;;;;;;;;;;;4977410;28;89456;-72
2023/09/27 08:15:08;;;;;;;;;;;;;;;;;;4976105;28;89383;-68
2023/09/27 08:17:35;;;;;;;;;;;;;;;;;;4980927;28;90471;-66
2023/09/27 08:20:00;;;;;;;;;;;;;;;;;;4972246;28;89604;-66
2023/09/27 08:22:25;;;;;;;;;;;;;;;;;;4975908;28;89570;-66
2023/09/27 08:24:50;;;;;;;;;;;;;;;;;;4975671;28;89942;-73
2023/09/27 08:27:16;;;;;;;;;;;;;;;;;;4972857;28;89794;-73
2023/09/27 08:29:42;;;;;;;;;;;;;;;;;;4983789;28;89169;-69
2023/09/27 08:32:08;;;;;;;;;;;;;;;;;;4977120;28;91308;-66
2023/09/27 08:34:33;;;;;;;;;;;;;;;;;;4977786;28;89692;-66
2023/09/27 08:36:59;;;;;;;;;;;;;;;;;;4980238;28;91739;-66
2023/09/27 08:39:24;;;;;;;;;;;;;;;;;;4978031;28;90942;-67
2023/09/27 08:41:50;;;;;;;;;;;;;;;;;;4978929;28;90458;-67
2023/09/27 08:44:16;;;;;;;;;;;;;;;;;;4975845;28;90819;-66
2023/09/27 08:46:41;;;;;;;;;;;;;;;;;;4977381;28;89490;-66
2023/09/27 08:49:08;;;;;;;;;;;;;;;;;;4981518;28;90575;-66
2023/09/27 08:51:35;;;;;;;;;;;;;;;;;;4978395;28;89900;-67
2023/09/27 08:54:01;;;;;;;;;;;;;;;;;;4978096;28;89836;-66
2023/09/27 08:56:27;;;;;;;;;;;;;;;;;;4974512;28;90136;-66
2023/09/27 08:58:52;;;;;;;;;;;;;;;;;;4977258;28;89604;-66
2023/09/27 09:01:18;;;;;;;;;;;;;;;;;;4977512;28;90147;-67
2023/09/27 09:03:43;;;;;;;;;;;;;;;;;;4980568;28;89976;-66
2023/09/27 09:06:12;;;;;;;;;;;;;;;;;;4974297;28;89732;-66
2023/09/27 09:08:44;;;;;;;;;;;;;;;;;;4979646;28;89615;-66
2023/09/27 09:11:10;;;;;;;;;;;;;;;;;;4982630;28;90526;-67
2023/09/27 09:13:56;;;;;;;;;;;;;;;;;;4977544;28;89867;-66
2023/09/27 09:16:23;;;;;;;;;;;;;;;;;;4975475;28;90246;-66
2023/09/27 09:18:51;;;;;;;;;;;;;;;;;;4980623;28;89344;-66
2023/09/27 09:21:18;;;;;;;;;;;;;;;;;;4978706;28;89851;-66
2023/09/27 09:23:48;;;;;;;;;;;;;;;;;;4977303;28;90501;-66
2023/09/27 09:26:24;;;;;;;;;;;;;;;;;;4978719;28;90258;-66
2023/09/27 09:28:57;;;;;;;;;;;;;;;;;;4975977;28;90546;-69
2023/09/27 09:31:23;;;;;;;;;;;;;;;;;;4983060;28;90444;-66
2023/09/27 09:34:07;;;;;;;;;;;;;;;;;;4978410;28;89437;-66
2023/09/27 09:36:34;;;;;;;;;;;;;;;;;;4982665;28;91362;-67
2023/09/27 09:39:06;;;;;;;;;;;;;;;;;;4978410;28;90526;-66
2023/09/27 09:41:44;;;;;;;;;;;;;;;;;;4979478;28;90882;-67
2023/09/27 09:44:31;;;;;;;;;;;;;;;;;;4976170;28;90784;-66
2023/09/27 09:47:07;;;;;;;;;;;;;;;;;;4974985;28;90438;-66
2023/09/27 09:49:34;;;;;;;;;;;;;;;;;;4980343;28;90191;-66
2023/09/27 09:52:00;;;;;;;;;;;;;;;;;;4974663;28;90343;-66
2023/09/27 09:54:41;;;;;;;;;;;;;;;;;;4977120;28;89522;-66
2023/09/27 09:57:07;;;;;;;;;;;;;;;;;;4981782;28;89740;-66
2023/09/27 09:59:38;;;;;;;;;;;;;;;;;;4978279;28;90385;-68
2023/09/27 10:02:11;;;;;;;;;;;;;;;;;;5005600;28;92130;-67
2023/09/27 10:04:36;;;;;;;;;;;;;;;;;;4974307;28;89111;-68
2023/09/27 10:07:02;;;;;;;;;;;;;;;;;;4980382;28;90356;-71
2023/09/27 10:09:28;;;;;;;;;;;;;;;;;;4975997;28;90164;-67
2023/09/27 10:11:55;;;;;;;;;;;;;;;;;;4977695;28;91017;-67
2023/09/27 10:14:20;;;;;;;;;;;;;;;;;;4979277;28;89620;-69
2023/09/27 10:16:48;;;;;;;;;;;;;;;;;;4982905;28;90819;-66
2023/09/27 10:19:24;;;;;;;;;;;;;;;;;;4982081;28;89247;-69
2023/09/27 10:22:14;;;;;;;;;;;;;;;;;;4978145;28;89541;-69
2023/09/27 10:24:41;;;;;;;;;;;;;;;;;;4981225;28;90339;-69
2023/09/27 10:27:06;;;;;;;;;;;;;;;;;;4976381;28;89899;-67
2023/09/27 10:29:52;;;;;;;;;;;;;;;;;;4976442;28;90482;-72
2023/09/27 10:32:17;;;;;;;;;;;;;;;;;;4976005;28;90190;-68
2023/09/27 10:34:42;;;;;;;;;;;;;;;;;;4979578;28;90406;-68
2023/09/27 10:37:10;;;;;;;;;;;;;;;;;;4976853;28;89544;-66
2023/09/27 10:39:39;;;;;;;;;;;;;;;;;;4981697;28;90193;-67
2023/09/27 10:42:04;;;;;;;;;;;;;;;;;;4979311;28;91380;-66
2023/09/27 10:44:31;;;;;;;;;;;;;;;;;;4981361;28;90411;-66
2023/09/27 10:47:01;;;;;;;;;;;;;;;;;;4979779;28;89372;-66
2023/09/27 10:49:27;;;;;;;;;;;;;;;;;;4980510;28;92400;-67
2023/09/27 10:51:53;;;;;;;;;;;;;;;;;;4982133;28;92245;-67
2023/09/27 10:54:22;;;;;;;;;;;;;;;;;;4979699;28;89911;-67
2023/09/27 10:56:52;;;;;;;;;;;;;;;;;;4974301;28;89794;-66
2023/09/27 10:59:27;;;;;;;;;;;;;;;;;;4978899;28;89228;-67
2023/09/27 11:01:53;;;;;;;;;;;;;;;;;;4982276;28;89484;-67
2023/09/27 11:04:22;;;;;;;;;;;;;;;;;;4981520;28;89394;-67
2023/09/27 11:06:48;;;;;;;;;;;;;;;;;;4978610;28;89881;-67
2023/09/27 11:09:14;;;;;;;;;;;;;;;;;;5011750;28;92882;-67
2023/09/27 11:11:43;;;;;;;;;;;;;;;;;;4981397;28;90087;-67
2023/09/27 11:14:08;;;;;;;;;;;;;;;;;;4979112;28;89375;-67
2023/09/27 11:16:34;;;;;;;;;;;;;;;;;;4981373;28;89883;-71
2023/09/27 11:18:59;;;;;;;;;;;;;;;;;;4982943;28;90864;-70
2023/09/27 11:21:26;;;;;;;;;;;;;;;;;;4976678;28;90827;-68
2023/09/27 11:23:52;;;;;;;;;;;;;;;;;;4980672;28;89665;-70
2023/09/27 11:26:19;;;;;;;;;;;;;;;;;;4981895;28;89805;-69
2023/09/27 11:29:05;;;;;;;;;;;;;;;;;;4978827;28;92483;-76
2023/09/27 11:31:32;;;;;;;;;;;;;;;;;;4980755;28;90265;-74
2023/09/27 11:34:15;;;;;;;;;;;;;;;;;;4980256;28;89447;-73
2023/09/27 11:36:44;;;;;;;;;;;;;;;;;;4983476;28;89810;-77
2023/09/27 11:39:10;;;;;;;;;;;;;;;;;;4982505;28;89730;-74
2023/09/27 11:41:36;;;;;;;;;;;;;;;;;;4982976;28;89566;-79
2023/09/27 11:44:17;;;;;;;;;;;;;;;;;;4978467;28;90536;-70
2023/09/27 11:46:43;;;;;;;;;;;;;;;;;;4983504;28;90224;-75
2023/09/27 11:49:09;;;;;;;;;;;;;;;;;;4980088;28;89788;-79
2023/09/27 11:51:38;;;;;;;;;;;;;;;;;;4974039;28;90764;-78
2023/09/27 11:54:07;;;;;;;;;;;;;;;;;;4978880;28;89267;-77
2023/09/27 11:56:36;;;;;;;;;;;;;;;;;;4977651;28;89778;-78
2023/09/27 11:59:04;;;;;;;;;;;;;;;;;;4976450;28;89954;-72
2023/09/27 12:01:29;;;;;;;;;;;;;;;;;;4978701;28;89462;-68
2023/09/27 12:03:55;;;;;;;;;;;;;;;;;;4980595;28;91133;-68
2023/09/27 12:06:21;;;;;;;;;;;;;;;;;;4979779;28;90390;-67
2023/09/27 12:08:47;;;;;;;;;;;;;;;;;;4983099;28;89468;-68
2023/09/27 12:11:12;;;;;;;;;;;;;;;;;;4975061;28;89529;-68
2023/09/27 12:13:37;;;;;;;;;;;;;;;;;;4982263;28;89309;-69
2023/09/27 12:16:02;;;;;;;;;;;;;;;;;;4979563;28;89698;-68
2023/09/27 12:18:28;;;;;;;;;;;;;;;;;;4979259;28;89581;-68
2023/09/27 12:20:54;;;;;;;;;;;;;;;;;;4982793;28;89846;-67
2023/09/27 12:23:19;;;;;;;;;;;;;;;;;;4981784;28;90042;-69
2023/09/27 12:25:45;;;;;;;;;;;;;;;;;;4984233;28;89644;-69
2023/09/27 12:28:11;;;;;;;;;;;;;;;;;;4982490;28;89456;-68
2023/09/27 12:30:37;;;;;;;;;;;;;;;;;;4978092;28;91119;-68
2023/09/27 12:33:02;;;;;;;;;;;;;;;;;;4980704;28;89513;-68
2023/09/27 12:35:27;;;;;;;;;;;;;;;;;;4978832;28;91465;-69
2023/09/27 12:37:52;;;;;;;;;;;;;;;;;;4981509;28;90077;-68
2023/09/27 12:40:18;;;;;;;;;;;;;;;;;;4972652;28;89788;-68
2023/09/27 12:42:43;;;;;;;;;;;;;;;;;;4980802;28;90038;-69
2023/09/27 12:45:09;;;;;;;;;;;;;;;;;;4981036;28;90363;-76
2023/09/27 12:47:34;;;;;;;;;;;;;;;;;;4979292;28;89436;-76
2023/09/27 12:50:02;;;;;;;;;;;;;;;;;;4981617;28;90126;-76
2023/09/27 12:52:28;;;;;;;;;;;;;;;;;;4980694;28;89509;-79
2023/09/27 12:54:53;;;;;;;;;;;;;;;;;;4982179;28;89734;-78
2023/09/27 12:57:18;;;;;;;;;;;;;;;;;;4980776;28;89887;-74
2023/09/27 12:59:43;;;;;;;;;;;;;;;;;;4979550;28;89241;-74
2023/09/27 13:02:09;;;;;;;;;;;;;;;;;;4981528;28;89590;-79
2023/09/27 13:04:34;;;;;;;;;;;;;;;;;;4979585;28;89767;-79
2023/09/27 13:06:59;;;;;;;;;;;;;;;;;;4978063;28;89091;-78
2023/09/27 13:09:25;;;;;;;;;;;;;;;;;;4979359;28;89975;-80
2023/09/27 13:11:50;;;;;;;;;;;;;;;;;;4977315;28;91165;-79
2023/09/27 13:14:16;;;;;;;;;;;;;;;;;;4979773;28;90678;-76
2023/09/27 13:16:42;;;;;;;;;;;;;;;;;;4979006;28;89262;-75
2023/09/27 13:19:08;;;;;;;;;;;;;;;;;;4973875;28;89629;-69
2023/09/27 13:21:33;;;;;;;;;;;;;;;;;;4979529;28;90721;-74
2023/09/27 13:23:58;;;;;;;;;;;;;;;;;;4972404;28;89727;-77
2023/09/27 13:26:25;;;;;;;;;;;;;;;;;;4975712;28;89379;-75
2023/09/27 13:28:50;;;;;;;;;;;;;;;;;;4978440;28;91762;-70
2023/09/27 13:31:15;;;;;;;;;;;;;;;;;;4977106;28;90273;-71
2023/09/27 13:33:41;;;;;;;;;;;;;;;;;;4978670;28;89627;-71
2023/09/27 13:36:06;;;;;;;;;;;;;;;;;;4973218;28;89472;-72
2023/09/27 13:38:31;;;;;;;;;;;;;;;;;;4973712;28;90581;-70
2023/09/27 13:40:58;;;;;;;;;;;;;;;;;;4977346;28;90951;-70
2023/09/27 13:43:23;;;;;;;;;;;;;;;;;;4972978;28;89698;-70
2023/09/27 13:45:48;;;;;;;;;;;;;;;;;;4976000;28;89616;-70
2023/09/27 13:48:13;;;;;;;;;;;;;;;;;;4975969;28;89540;-72
2023/09/27 13:50:39;;;;;;;;;;;;;;;;;;4976529;28;89282;-71
2023/09/27 13:53:05;;;;;;;;;;;;;;;;;;4971931;28;89080;-72
2023/09/27 13:55:30;;;;;;;;;;;;;;;;;;4979265;28;89520;-71
2023/09/27 13:57:56;;;;;;;;;;;;;;;;;;4976305;28;90200;-71
2023/09/27 14:00:22;;;;;;;;;;;;;;;;;;4980607;28;90637;-71
2023/09/27 14:02:47;;;;;;;;;;;;;;;;;;4977523;28;90616;-71
2023/09/27 14:05:12;;;;;;;;;;;;;;;;;;4973199;28;89874;-71
2023/09/27 14:07:39;;;;;;;;;;;;;;;;;;4973951;28;89431;-68
2023/09/27 14:10:05;;;;;;;;;;;;;;;;;;4973594;28;90547;-67
2023/09/27 14:12:30;;;;;;;;;;;;;;;;;;4976350;28;89567;-73
2023/09/27 14:14:58;;;;;;;;;;;;;;;;;;4975648;28;89810;-71
2023/09/27 14:17:23;;;;;;;;;;;;;;;;;;4978850;28;90376;-70
2023/09/27 14:19:49;;;;;;;;;;;;;;;;;;4977044;28;90700;-69
2023/09/27 14:22:14;;;;;;;;;;;;;;;;;;4975992;28;89665;-73
2023/09/27 14:24:39;;;;;;;;;;;;;;;;;;4976287;28;90453;-70
2023/09/27 14:27:05;;;;;;;;;;;;;;;;;;4976663;28;90417;-71
2023/09/27 14:29:34;;;;;;;;;;;;;;;;;;4978240;28;89501;-72
2023/09/27 14:31:59;;;;;;;;;;;;;;;;;;4973864;28;89082;-70
2023/09/27 14:34:24;;;;;;;;;;;;;;;;;;4975673;28;89532;-69
2023/09/27 14:36:50;;;;;;;;;;;;;;;;;;4979657;28;90047;-69
2023/09/27 14:39:17;;;;;;;;;;;;;;;;;;4985713;28;90245;-72
2023/09/27 14:41:43;;;;;;;;;;;;;;;;;;4978947;28;90478;-71
2023/09/27 14:44:09;;;;;;;;;;;;;;;;;;4975028;28;89579;-71
2023/09/27 14:46:34;;;;;;;;;;;;;;;;;;4975744;28;89549;-70
2023/09/27 14:49:00;;;;;;;;;;;;;;;;;;4976949;28;90183;-73
2023/09/27 14:51:26;;;;;;;;;;;;;;;;;;4979116;28;89451;-71
2023/09/27 14:53:51;;;;;;;;;;;;;;;;;;4978632;28;89791;-74
2023/09/27 14:56:17;;;;;;;;;;;;;;;;;;4980651;28;90174;-78
2023/09/27 14:58:43;;;;;;;;;;;;;;;;;;4982821;28;89535;-74
2023/09/27 15:01:09;;;;;;;;;;;;;;;;;;5001293;28;91180;-73
2023/09/27 15:03:34;;;;;;;;;;;;;;;;;;4979468;28;89119;-73
2023/09/27 15:06:02;;;;;;;;;;;;;;;;;;4977989;28;90324;-74
2023/09/27 15:08:31;;;;;;;;;;;;;;;;;;4973358;28;90169;-75
2023/09/27 15:10:57;;;;;;;;;;;;;;;;;;4981279;28;89613;-76
2023/09/27 15:13:23;;;;;;;;;;;;;;;;;;4972469;28;91144;-74
2023/09/27 15:15:48;;;;;;;;;;;;;;;;;;4976116;28;89707;-76
2023/09/27 15:18:15;;;;;;;;;;;;;;;;;;4980974;28;89626;-74
2023/09/27 15:20:40;;;;;;;;;;;;;;;;;;4982917;28;89712;-78
2023/09/27 15:23:06;;;;;;;;;;;;;;;;;;4979850;28;90391;-76
2023/09/27 15:25:31;;;;;;;;;;;;;;;;;;4971964;28;92965;-73
2023/09/27 15:27:56;;;;;;;;;;;;;;;;;;4974692;28;89772;-76
2023/09/27 15:30:22;;;;;;;;;;;;;;;;;;4975308;28;90014;-73
2023/09/27 15:32:47;;;;;;;;;;;;;;;;;;4975552;28;89760;-76
2023/09/27 15:35:14;;;;;;;;;;;;;;;;;;4970938;28;89556;-75
2023/09/27 15:37:55;;;;;;;;;;;;;;;;;;4977480;28;89258;-72
2023/09/27 15:40:21;;;;;;;;;;;;;;;;;;4973246;28;91817;-75
2023/09/27 15:42:52;;;;;;;;;;;;;;;;;;4979041;28;90661;-71
2023/09/27 15:45:17;;;;;;;;;;;;;;;;;;4977921;28;90668;-73
2023/09/27 15:47:43;;;;;;;;;;;;;;;;;;4975506;28;89874;-72
2023/09/27 15:50:09;;;;;;;;;;;;;;;;;;5009778;28;89901;-74
2023/09/27 15:52:34;;;;;;;;;;;;;;;;;;4973261;28;89563;-74
2023/09/27 15:55:01;;;;;;;;;;;;;;;;;;4977943;28;89172;-72
2023/09/27 15:57:28;;;;;;;;;;;;;;;;;;4974119;28;89221;-71
2023/09/27 15:59:53;;;;;;;;;;;;;;;;;;4975079;28;90787;-71
2023/09/27 16:02:19;;;;;;;;;;;;;;;;;;4972557;28;89768;-72
2023/09/27 16:04:44;;;;;;;;;;;;;;;;;;4975799;28;90024;-73
2023/09/27 16:07:09;;;;;;;;;;;;;;;;;;4976068;28;90712;-73
2023/09/27 16:09:34;;;;;;;;;;;;;;;;;;4976807;28;89692;-73
2023/09/27 16:12:01;;;;;;;;;;;;;;;;;;4975440;28;89623;-73
2023/09/27 16:14:30;;;;;;;;;;;;;;;;;;4974446;28;90389;-73
2023/09/27 16:16:56;;;;;;;;;;;;;;;;;;4973090;28;91095;-71
2023/09/27 16:19:21;;;;;;;;;;;;;;;;;;4975100;28;90108;-72
2023/09/27 16:21:48;;;;;;;;;;;;;;;;;;4974915;28;90118;-77
2023/09/27 16:24:14;;;;;;;;;;;;;;;;;;4977619;28;89569;-77
2023/09/27 16:26:40;;;;;;;;;;;;;;;;;;4980921;28;91555;-77
2023/09/27 16:29:06;;;;;;;;;;;;;;;;;;4975512;28;89727;-77
2023/09/27 16:31:32;;;;;;;;;;;;;;;;;;4976387;28;89688;-76
2023/09/27 16:33:58;;;;;;;;;;;;;;;;;;4975939;28;90293;-79
2023/09/27 16:36:24;;;;;;;;;;;;;;;;;;4978654;28;89611;-76
2023/09/27 16:38:49;;;;;;;;;;;;;;;;;;4974961;28;89827;-73
2023/09/27 16:41:17;;;;;;;;;;;;;;;;;;4979771;28;91032;-76